Accueil
METAR-TAF:

METAR-TAF

Aéroports :

Mountain Village, Alaska, États-Unis

latitude: 62-05-43N, longitude: 163-40-55W, altitude: 103 m

Observation

Le bulletin a été fait il y a 40 minutes, à 22:02 UTC
Vent 3 kt de sud-ouest
Température -14°C
Humidité 92%
Pression 1010 hPa
Visibilité: 6.4 km
Nuages épars à une hauteur de 4000 ft
Ciel couvert à une hauteur de 5500 ft
neige faible, brume

METAR: PAMO 222202Z AUTO 23003KT 4SM -SN BR SCT040 OVC055 M14/M15 A2982 RMK AO2 SLP110 P0000 T11391150 FZRANO

Heure: 13:42 (22:42 UTC)


TAF: absent

Observations et prévisions météorologiques de plus de 4000 aéroports (messages METAR et TAF).

Les stations disponibles sont représentées par des disques jaunes et rouges sur la carte.

Passer la souris dessus pour voir le nom de la station.

Cliquer dessus pour voir les observations et prévisions météorologiques.

Pour changer de carte: cliquez sur les boutons verts avec une croix noire pour zoomer, sur le bouton vert avec un tiret pour effectuer un zoom arrière, ou sur les flèches vertes pour les cartes adjacentes.


METAR-TAF: